sensor_id;sensor_type;location;lat;lon;timestamp;pressure;altitude;pressure_sealevel;temperature;humidity
75852;BME280;64500;52.632;20.656;2022-12-07T00:01:21;99692.92;;;2.58;78.12
75852;BME280;64500;52.632;20.656;2022-12-07T00:03:50;99693.98;;;2.58;78.17
75852;BME280;64500;52.632;20.656;2022-12-07T00:06:18;99693.27;;;2.57;78.30
75852;BME280;64500;52.632;20.656;2022-12-07T00:08:46;99691.71;;;2.57;78.08
75852;BME280;64500;52.632;20.656;2022-12-07T00:11:19;99691.54;;;2.57;78.15
75852;BME280;64500;52.632;20.656;2022-12-07T00:13:47;99689.97;;;2.57;78.06
75852;BME280;64500;52.632;20.656;2022-12-07T00:16:17;99688.57;;;2.57;78.17
75852;BME280;64500;52.632;20.656;2022-12-07T00:18:45;99692.04;;;2.58;78.06
75852;BME280;64500;52.632;20.656;2022-12-07T00:21:15;99691.36;;;2.57;78.12
75852;BME280;64500;52.632;20.656;2022-12-07T00:23:44;99693.27;;;2.57;78.34
75852;BME280;64500;52.632;20.656;2022-12-07T00:26:16;99692.05;;;2.58;78.12
75852;BME280;64500;52.632;20.656;2022-12-07T00:28:51;99691.52;;;2.58;78.17
75852;BME280;64500;52.632;20.656;2022-12-07T00:31:20;99691.52;;;2.58;78.40
75852;BME280;64500;52.632;20.656;2022-12-07T00:33:47;99686.83;;;2.57;78.08
75852;BME280;64500;52.632;20.656;2022-12-07T00:36:17;99685.61;;;2.57;78.18
75852;BME280;64500;52.632;20.656;2022-12-07T00:38:44;99680.38;;;2.57;78.23
75852;BME280;64500;52.632;20.656;2022-12-07T00:41:18;99680.20;;;2.58;77.95
75852;BME280;64500;52.632;20.656;2022-12-07T00:43:46;99676.35;;;2.58;77.96
75852;BME280;64500;52.632;20.656;2022-12-07T00:46:14;99678.10;;;2.58;78.06
75852;BME280;64500;52.632;20.656;2022-12-07T00:48:41;99677.23;;;2.58;78.11
75852;BME280;64500;52.632;20.656;2022-12-07T00:51:13;99676.00;;;2.58;78.12
75852;BME280;64500;52.632;20.656;2022-12-07T00:53:40;99669.89;;;2.58;78.39
75852;BME280;64500;52.632;20.656;2022-12-07T00:56:08;99669.55;;;2.57;78.10
75852;BME280;64500;52.632;20.656;2022-12-07T00:58:35;99668.33;;;2.58;78.27
75852;BME280;64500;52.632;20.656;2022-12-07T01:01:04;99668.52;;;2.57;78.17
75852;BME280;64500;52.632;20.656;2022-12-07T01:03:32;99670.08;;;2.57;78.04
75852;BME280;64500;52.632;20.656;2022-12-07T01:05:59;99667.64;;;2.57;78.07
75852;BME280;64500;52.632;20.656;2022-12-07T01:08:28;99669.39;;;2.56;78.00
75852;BME280;64500;52.632;20.656;2022-12-07T01:13:26;99664.67;;;2.56;78.28
75852;BME280;64500;52.632;20.656;2022-12-07T01:15:59;99663.80;;;2.57;78.14
75852;BME280;64500;52.632;20.656;2022-12-07T01:18:27;99658.21;;;2.56;78.30
75852;BME280;64500;52.632;20.656;2022-12-07T01:21:05;99660.66;;;2.56;78.07
75852;BME280;64500;52.632;20.656;2022-12-07T01:23:34;99661.36;;;2.56;78.20
75852;BME280;64500;52.632;20.656;2022-12-07T01:26:05;99661.71;;;2.56;78.30
75852;BME280;64500;52.632;20.656;2022-12-07T01:28:33;99659.80;;;2.56;78.21
75852;BME280;64500;52.632;20.656;2022-12-07T01:31:01;99656.31;;;2.56;78.18
75852;BME280;64500;52.632;20.656;2022-12-07T01:33:30;99654.73;;;2.55;78.05
75852;BME280;64500;52.632;20.656;2022-12-07T01:38:46;99653.17;;;2.55;78.25
75852;BME280;64500;52.632;20.656;2022-12-07T01:41:14;99650.91;;;2.54;78.12
75852;BME280;64500;52.632;20.656;2022-12-07T01:47:01;99643.76;;;2.53;78.20
75852;BME280;64500;52.632;20.656;2022-12-07T01:49:44;99641.48;;;2.53;78.31
75852;BME280;64500;52.632;20.656;2022-12-07T01:52:31;99636.79;;;2.51;78.19
75852;BME280;64500;52.632;20.656;2022-12-07T01:55:06;99636.95;;;2.51;78.20
75852;BME280;64500;52.632;20.656;2022-12-07T01:57:36;99635.02;;;2.50;78.29
75852;BME280;64500;52.632;20.656;2022-12-07T02:00:06;99631.89;;;2.50;78.48
75852;BME280;64500;52.632;20.656;2022-12-07T02:02:37;99628.41;;;2.50;78.26
75852;BME280;64500;52.632;20.656;2022-12-07T02:05:06;99624.73;;;2.50;78.10
75852;BME280;64500;52.632;20.656;2022-12-07T02:07:36;99625.09;;;2.50;78.54
75852;BME280;64500;52.632;20.656;2022-12-07T02:12:48;99612.70;;;2.50;78.52
75852;BME280;64500;52.632;20.656;2022-12-07T02:15:15;99615.15;;;2.50;78.38
75852;BME280;64500;52.632;20.656;2022-12-07T02:18:11;99613.23;;;2.51;78.59
75852;BME280;64500;52.632;20.656;2022-12-07T02:20:53;99608.35;;;2.51;78.50
75852;BME280;64500;52.632;20.656;2022-12-07T02:29:29;99605.57;;;2.49;78.45
75852;BME280;64500;52.632;20.656;2022-12-07T02:34:40;99601.03;;;2.49;78.55
75852;BME280;64500;52.632;20.656;2022-12-07T02:37:19;99602.77;;;2.49;78.83
75852;BME280;64500;52.632;20.656;2022-12-07T02:39:59;99602.95;;;2.49;78.60
75852;BME280;64500;52.632;20.656;2022-12-07T02:42:35;99600.14;;;2.50;78.93
75852;BME280;64500;52.632;20.656;2022-12-07T02:45:05;99602.41;;;2.51;78.85
75852;BME280;64500;52.632;20.656;2022-12-07T02:47:34;99596.64;;;2.52;78.84
75852;BME280;64500;52.632;20.656;2022-12-07T02:50:06;99599.10;;;2.53;78.95
75852;BME280;64500;52.632;20.656;2022-12-07T02:52:33;99598.40;;;2.54;78.97
75852;BME280;64500;52.632;20.656;2022-12-07T02:55:00;99596.47;;;2.54;78.85
75852;BME280;64500;52.632;20.656;2022-12-07T03:00:19;99597.70;;;2.56;78.81
75852;BME280;64500;52.632;20.656;2022-12-07T03:02:57;99597.34;;;2.56;78.86
75852;BME280;64500;52.632;20.656;2022-12-07T03:11:06;99596.46;;;2.55;78.71
75852;BME280;64500;52.632;20.656;2022-12-07T03:16:33;99592.98;;;2.54;78.78
75852;BME280;64500;52.632;20.656;2022-12-07T03:19:08;99591.76;;;2.54;78.72
75852;BME280;64500;52.632;20.656;2022-12-07T03:21:40;99593.68;;;2.54;78.89
75852;BME280;64500;52.632;20.656;2022-12-07T03:24:33;99590.89;;;2.54;78.98
75852;BME280;64500;52.632;20.656;2022-12-07T03:27:16;99588.11;;;2.53;79.21
75852;BME280;64500;52.632;20.656;2022-12-07T03:30:28;99583.39;;;2.54;79.11
75852;BME280;64500;52.632;20.656;2022-12-07T03:35:03;99583.75;;;2.50;79.15
75852;BME280;64500;52.632;20.656;2022-12-07T03:40:54;99574.52;;;2.49;79.17
75852;BME280;64500;52.632;20.656;2022-12-07T03:43:23;99574.17;;;2.49;78.89
75852;BME280;64500;52.632;20.656;2022-12-07T03:46:04;99572.94;;;2.49;78.87
75852;BME280;64500;52.632;20.656;2022-12-07T03:48:40;99566.64;;;2.50;78.70
75852;BME280;64500;52.632;20.656;2022-12-07T03:51:27;99565.27;;;2.49;78.86
75852;BME280;64500;52.632;20.656;2022-12-07T03:54:18;99563.17;;;2.50;78.89
75852;BME280;64500;52.632;20.656;2022-12-07T03:56:48;99560.90;;;2.50;78.74
75852;BME280;64500;52.632;20.656;2022-12-07T03:59:17;99556.36;;;2.49;78.69
75852;BME280;64500;52.632;20.656;2022-12-07T04:01:45;99554.63;;;2.49;79.10
75852;BME280;64500;52.632;20.656;2022-12-07T04:04:17;99556.18;;;2.50;79.06
75852;BME280;64500;52.632;20.656;2022-12-07T04:06:45;99557.23;;;2.50;78.80
75852;BME280;64500;52.632;20.656;2022-12-07T04:09:12;99554.27;;;2.51;78.69
75852;BME280;64500;52.632;20.656;2022-12-07T04:11:41;99551.30;;;2.52;78.68
75852;BME280;64500;52.632;20.656;2022-12-07T04:14:07;99550.60;;;2.52;78.94
75852;BME280;64500;52.632;20.656;2022-12-07T04:16:56;99551.30;;;2.52;78.79
75852;BME280;64500;52.632;20.656;2022-12-07T04:19:26;99548.67;;;2.52;78.88
75852;BME280;64500;52.632;20.656;2022-12-07T04:21:55;99548.16;;;2.52;78.61
75852;BME280;64500;52.632;20.656;2022-12-07T04:24:23;99550.59;;;2.52;78.64
75852;BME280;64500;52.632;20.656;2022-12-07T04:26:50;99544.14;;;2.52;78.74
75852;BME280;64500;52.632;20.656;2022-12-07T04:29:18;99542.41;;;2.52;78.70
75852;BME280;64500;52.632;20.656;2022-12-07T04:31:45;99540.84;;;2.52;78.69
75852;BME280;64500;52.632;20.656;2022-12-07T04:34:13;99545.20;;;2.52;78.72
75852;BME280;64500;52.632;20.656;2022-12-07T04:36:41;99541.02;;;2.51;78.83
75852;BME280;64500;52.632;20.656;2022-12-07T04:39:17;99541.70;;;2.52;78.75
75852;BME280;64500;52.632;20.656;2022-12-07T04:41:44;99538.05;;;2.51;78.68
75852;BME280;64500;52.632;20.656;2022-12-07T04:44:12;99539.62;;;2.50;78.60
75852;BME280;64500;52.632;20.656;2022-12-07T04:46:41;99538.05;;;2.50;78.72
75852;BME280;64500;52.632;20.656;2022-12-07T04:49:09;99537.88;;;2.50;78.88
75852;BME280;64500;52.632;20.656;2022-12-07T04:51:36;99540.15;;;2.49;78.70
75852;BME280;64500;52.632;20.656;2022-12-07T04:54:04;99531.95;;;2.49;78.81
75852;BME280;64500;52.632;20.656;2022-12-07T04:56:32;99531.26;;;2.49;78.71
75852;BME280;64500;52.632;20.656;2022-12-07T04:58:59;99530.73;;;2.48;78.70
75852;BME280;64500;52.632;20.656;2022-12-07T05:01:25;99528.30;;;2.48;78.86
75852;BME280;64500;52.632;20.656;2022-12-07T05:03:52;99527.95;;;2.48;78.57
75852;BME280;64500;52.632;20.656;2022-12-07T05:06:19;99530.21;;;2.48;79.02
75852;BME280;64500;52.632;20.656;2022-12-07T05:08:47;99526.54;;;2.49;78.78
75852;BME280;64500;52.632;20.656;2022-12-07T05:11:14;99522.89;;;2.49;78.61
75852;BME280;64500;52.632;20.656;2022-12-07T05:14:04;99520.27;;;2.48;78.64
75852;BME280;64500;52.632;20.656;2022-12-07T05:16:32;99516.44;;;2.48;78.56
75852;BME280;64500;52.632;20.656;2022-12-07T05:18:59;99521.15;;;2.48;78.71
75852;BME280;64500;52.632;20.656;2022-12-07T05:21:26;99516.27;;;2.48;78.89
75852;BME280;64500;52.632;20.656;2022-12-07T05:23:53;99513.28;;;2.49;78.87
75852;BME280;64500;52.632;20.656;2022-12-07T05:26:20;99514.67;;;2.50;78.92
75852;BME280;64500;52.632;20.656;2022-12-07T05:28:55;99512.92;;;2.50;78.96
75852;BME280;64500;52.632;20.656;2022-12-07T05:31:24;99513.11;;;2.50;78.95
75852;BME280;64500;52.632;20.656;2022-12-07T05:33:51;99510.32;;;2.50;78.70
75852;BME280;64500;52.632;20.656;2022-12-07T05:36:19;99512.40;;;2.50;78.81
75852;BME280;64500;52.632;20.656;2022-12-07T05:38:45;99507.86;;;2.51;78.80
75852;BME280;64500;52.632;20.656;2022-12-07T05:41:16;99507.16;;;2.50;78.80
75852;BME280;64500;52.632;20.656;2022-12-07T05:44:02;99506.13;;;2.50;78.56
75852;BME280;64500;52.632;20.656;2022-12-07T05:46:30;99510.67;;;2.49;78.73
75852;BME280;64500;52.632;20.656;2022-12-07T05:48:57;99511.88;;;2.50;78.82
75852;BME280;64500;52.632;20.656;2022-12-07T05:51:24;99515.19;;;2.50;78.74
75852;BME280;64500;52.632;20.656;2022-12-07T05:53:51;99512.59;;;2.50;78.84
75852;BME280;64500;52.632;20.656;2022-12-07T05:56:18;99513.98;;;2.50;78.79
75852;BME280;64500;52.632;20.656;2022-12-07T05:58:45;99514.49;;;2.50;78.98
75852;BME280;64500;52.632;20.656;2022-12-07T06:01:30;99514.49;;;2.50;78.80
75852;BME280;64500;52.632;20.656;2022-12-07T06:03:57;99511.37;;;2.48;78.90
75852;BME280;64500;52.632;20.656;2022-12-07T06:06:24;99510.34;;;2.48;78.82
75852;BME280;64500;52.632;20.656;2022-12-07T06:08:51;99513.12;;;2.48;78.75
75852;BME280;64500;52.632;20.656;2022-12-07T06:11:18;99512.61;;;2.48;78.82
75852;BME280;64500;52.632;20.656;2022-12-07T06:14:04;99509.29;;;2.47;78.60
75852;BME280;64500;52.632;20.656;2022-12-07T06:16:31;99508.23;;;2.47;78.93
75852;BME280;64500;52.632;20.656;2022-12-07T06:18:57;99506.49;;;2.47;78.77
75852;BME280;64500;52.632;20.656;2022-12-07T06:21:24;99501.27;;;2.46;78.80
75852;BME280;64500;52.632;20.656;2022-12-07T06:23:53;99502.66;;;2.46;78.83
75852;BME280;64500;52.632;20.656;2022-12-07T06:26:21;99501.79;;;2.46;78.72
75852;BME280;64500;52.632;20.656;2022-12-07T06:28:48;99501.45;;;2.45;78.78
75852;BME280;64500;52.632;20.656;2022-12-07T06:31:15;99503.19;;;2.45;79.03
75852;BME280;64500;52.632;20.656;2022-12-07T06:33:42;99504.95;;;2.45;78.85
75852;BME280;64500;52.632;20.656;2022-12-07T06:36:09;99500.75;;;2.44;78.81
75852;BME280;64500;52.632;20.656;2022-12-07T06:38:36;99500.23;;;2.44;78.70
75852;BME280;64500;52.632;20.656;2022-12-07T06:41:04;99499.89;;;2.44;78.76
75852;BME280;64500;52.632;20.656;2022-12-07T06:43:32;99499.54;;;2.43;78.70
75852;BME280;64500;52.632;20.656;2022-12-07T06:45:59;99499.89;;;2.43;79.14
75852;BME280;64500;52.632;20.656;2022-12-07T06:48:26;99496.05;;;2.43;79.06
75852;BME280;64500;52.632;20.656;2022-12-07T06:50:55;99500.75;;;2.43;78.88
75852;BME280;64500;52.632;20.656;2022-12-07T06:53:22;99499.70;;;2.45;79.17
75852;BME280;64500;52.632;20.656;2022-12-07T06:55:49;99498.13;;;2.46;79.09
75852;BME280;64500;52.632;20.656;2022-12-07T06:58:16;99500.73;;;2.47;79.26
75852;BME280;64500;52.632;20.656;2022-12-07T07:00:44;99499.35;;;2.47;78.83
75852;BME280;64500;52.632;20.656;2022-12-07T07:03:11;99497.98;;;2.44;79.03
75852;BME280;64500;52.632;20.656;2022-12-07T07:05:38;99499.71;;;2.45;79.13
75852;BME280;64500;52.632;20.656;2022-12-07T07:08:06;99498.30;;;2.45;79.40
75852;BME280;64500;52.632;20.656;2022-12-07T07:10:33;99498.48;;;2.44;79.03
75852;BME280;64500;52.632;20.656;2022-12-07T07:13:00;99501.09;;;2.46;79.30
75852;BME280;64500;52.632;20.656;2022-12-07T07:15:27;99500.75;;;2.46;79.03
75852;BME280;64500;52.632;20.656;2022-12-07T07:17:54;99499.00;;;2.46;79.16
75852;BME280;64500;52.632;20.656;2022-12-07T07:20:21;99497.43;;;2.46;79.32
75852;BME280;64500;52.632;20.656;2022-12-07T07:22:49;99497.61;;;2.46;79.08
75852;BME280;64500;52.632;20.656;2022-12-07T07:25:16;99496.21;;;2.46;79.15
75852;BME280;64500;52.632;20.656;2022-12-07T07:27:42;99492.20;;;2.45;79.38
75852;BME280;64500;52.632;20.656;2022-12-07T07:30:09;99492.20;;;2.47;79.44
75852;BME280;64500;52.632;20.656;2022-12-07T07:32:37;99491.49;;;2.48;79.50
75852;BME280;64500;52.632;20.656;2022-12-07T07:35:04;99493.06;;;2.48;79.22
75852;BME280;64500;52.632;20.656;2022-12-07T07:37:31;99494.10;;;2.49;79.69
75852;BME280;64500;52.632;20.656;2022-12-07T07:39:58;99498.11;;;2.49;79.34
75852;BME280;64500;52.632;20.656;2022-12-07T07:42:25;99500.38;;;2.49;79.17
75852;BME280;64500;52.632;20.656;2022-12-07T07:44:51;99492.70;;;2.49;79.35
75852;BME280;64500;52.632;20.656;2022-12-07T07:47:18;99497.23;;;2.48;79.40
75852;BME280;64500;52.632;20.656;2022-12-07T07:49:45;99496.20;;;2.48;79.30
75852;BME280;64500;52.632;20.656;2022-12-07T07:52:12;99494.64;;;2.48;79.49
75852;BME280;64500;52.632;20.656;2022-12-07T07:54:39;99495.49;;;2.49;79.46
75852;BME280;64500;52.632;20.656;2022-12-07T07:57:06;99497.23;;;2.49;79.38
75852;BME280;64500;52.632;20.656;2022-12-07T07:59:33;99498.10;;;2.49;79.47
75852;BME280;64500;52.632;20.656;2022-12-07T08:02:01;99496.19;;;2.49;79.54
75852;BME280;64500;52.632;20.656;2022-12-07T08:04:27;99496.00;;;2.50;79.66
75852;BME280;64500;52.632;20.656;2022-12-07T08:06:54;99490.60;;;2.50;79.47
75852;BME280;64500;52.632;20.656;2022-12-07T08:09:21;99492.52;;;2.50;79.58
75852;BME280;64500;52.632;20.656;2022-12-07T08:11:48;99496.02;;;2.50;79.54
75852;BME280;64500;52.632;20.656;2022-12-07T08:14:15;99500.72;;;2.51;79.36
75852;BME280;64500;52.632;20.656;2022-12-07T08:16:42;99496.19;;;2.50;79.71
75852;BME280;64500;52.632;20.656;2022-12-07T08:19:09;99497.23;;;2.51;79.71
75852;BME280;64500;52.632;20.656;2022-12-07T08:21:37;99497.92;;;2.51;79.73
75852;BME280;64500;52.632;20.656;2022-12-07T08:24:05;99496.88;;;2.52;79.68
75852;BME280;64500;52.632;20.656;2022-12-07T08:26:32;99500.19;;;2.53;79.65
75852;BME280;64500;52.632;20.656;2022-12-07T08:29:01;99504.38;;;2.52;79.60
75852;BME280;64500;52.632;20.656;2022-12-07T08:31:28;99505.77;;;2.53;79.52
75852;BME280;64500;52.632;20.656;2022-12-07T08:33:56;99502.96;;;2.54;79.56
75852;BME280;64500;52.632;20.656;2022-12-07T08:36:23;99503.85;;;2.54;79.67
75852;BME280;64500;52.632;20.656;2022-12-07T08:38:51;99500.71;;;2.53;79.55
75852;BME280;64500;52.632;20.656;2022-12-07T08:41:18;99500.89;;;2.53;79.67
75852;BME280;64500;52.632;20.656;2022-12-07T08:43:45;99497.92;;;2.53;79.57
75852;BME280;64500;52.632;20.656;2022-12-07T08:48:49;99500.54;;;2.53;79.68
75852;BME280;64500;52.632;20.656;2022-12-07T08:51:19;99502.45;;;2.52;79.71
75852;BME280;64500;52.632;20.656;2022-12-07T08:53:48;99505.08;;;2.52;79.66
75852;BME280;64500;52.632;20.656;2022-12-07T08:56:15;99501.23;;;2.52;79.68
75852;BME280;64500;52.632;20.656;2022-12-07T08:58:43;99503.33;;;2.52;79.84
75852;BME280;64500;52.632;20.656;2022-12-07T09:01:10;99500.71;;;2.52;79.48
75852;BME280;64500;52.632;20.656;2022-12-07T09:03:38;99493.91;;;2.51;79.64
75852;BME280;64500;52.632;20.656;2022-12-07T09:06:05;99492.34;;;2.52;79.81
75852;BME280;64500;52.632;20.656;2022-12-07T09:08:42;99491.30;;;2.51;80.02
75852;BME280;64500;52.632;20.656;2022-12-07T09:11:11;99488.16;;;2.51;79.74
75852;BME280;64500;52.632;20.656;2022-12-07T09:13:38;99489.38;;;2.52;79.56
75852;BME280;64500;52.632;20.656;2022-12-07T09:16:06;99490.42;;;2.52;79.88
75852;BME280;64500;52.632;20.656;2022-12-07T09:18:33;99484.14;;;2.52;79.75
75852;BME280;64500;52.632;20.656;2022-12-07T09:21:00;99479.60;;;2.52;79.75
75852;BME280;64500;52.632;20.656;2022-12-07T09:23:27;99473.15;;;2.51;79.63
75852;BME280;64500;52.632;20.656;2022-12-07T09:25:54;99470.53;;;2.52;79.60
75852;BME280;64500;52.632;20.656;2022-12-07T09:28:21;99464.43;;;2.51;79.67
75852;BME280;64500;52.632;20.656;2022-12-07T09:30:49;99463.03;;;2.52;79.77
75852;BME280;64500;52.632;20.656;2022-12-07T09:33:16;99462.87;;;2.51;79.77
75852;BME280;64500;52.632;20.656;2022-12-07T09:35:48;99460.77;;;2.50;79.71
75852;BME280;64500;52.632;20.656;2022-12-07T09:38:15;99459.89;;;2.50;79.77
75852;BME280;64500;52.632;20.656;2022-12-07T09:40:43;99458.86;;;2.51;79.71
75852;BME280;64500;52.632;20.656;2022-12-07T09:43:16;99457.46;;;2.51;79.66
75852;BME280;64500;52.632;20.656;2022-12-07T09:45:44;99460.08;;;2.50;79.67
75852;BME280;64500;52.632;20.656;2022-12-07T09:48:18;99456.77;;;2.49;79.90
75852;BME280;64500;52.632;20.656;2022-12-07T09:50:47;99461.82;;;2.49;79.68
75852;BME280;64500;52.632;20.656;2022-12-07T09:53:25;99465.15;;;2.48;79.70
75852;BME280;64500;52.632;20.656;2022-12-07T09:55:54;99464.63;;;2.48;79.60
75852;BME280;64500;52.632;20.656;2022-12-07T09:58:26;99467.42;;;2.47;79.85
75852;BME280;64500;52.632;20.656;2022-12-07T10:00:57;99471.95;;;2.47;79.98
75852;BME280;64500;52.632;20.656;2022-12-07T10:03:27;99469.52;;;2.46;80.03
75852;BME280;64500;52.632;20.656;2022-12-07T10:05:55;99468.30;;;2.46;79.57
75852;BME280;64500;52.632;20.656;2022-12-07T10:08:24;99470.57;;;2.46;79.77
75852;BME280;64500;52.632;20.656;2022-12-07T10:10:54;99468.13;;;2.46;79.75
75852;BME280;64500;52.632;20.656;2022-12-07T10:13:39;99471.96;;;2.47;79.83
75852;BME280;64500;52.632;20.656;2022-12-07T10:18:55;99471.96;;;2.47;79.81
75852;BME280;64500;52.632;20.656;2022-12-07T10:21:26;99468.82;;;2.48;79.68
75852;BME280;64500;52.632;20.656;2022-12-07T10:29:16;99468.48;;;2.48;79.79
75852;BME280;64500;52.632;20.656;2022-12-07T10:31:45;99469.52;;;2.48;79.71
75852;BME280;64500;52.632;20.656;2022-12-07T10:34:28;99469.69;;;2.48;79.94
75852;BME280;64500;52.632;20.656;2022-12-07T10:39:55;99470.73;;;2.47;79.76
75852;BME280;64500;52.632;20.656;2022-12-07T10:42:28;99470.05;;;2.46;79.47
75852;BME280;64500;52.632;20.656;2022-12-07T10:47:55;99463.45;;;2.42;79.85
75852;BME280;64500;52.632;20.656;2022-12-07T11:04:59;99466.96;;;2.37;79.67
75852;BME280;64500;52.632;20.656;2022-12-07T11:07:43;99468.20;;;2.36;79.72
75852;BME280;64500;52.632;20.656;2022-12-07T11:19:13;99457.55;;;2.36;79.93
75852;BME280;64500;52.632;20.656;2022-12-07T11:21:51;99455.81;;;2.36;79.89
75852;BME280;64500;52.632;20.656;2022-12-07T11:24:47;99460.70;;;2.36;79.86
75852;BME280;64500;52.632;20.656;2022-12-07T11:38:13;99452.99;;;2.39;79.66
75852;BME280;64500;52.632;20.656;2022-12-07T11:40:46;99448.63;;;2.40;79.96
75852;BME280;64500;52.632;20.656;2022-12-07T11:43:27;99451.75;;;2.41;79.80
75852;BME280;64500;52.632;20.656;2022-12-07T11:48:58;99444.43;;;2.42;80.07
75852;BME280;64500;52.632;20.656;2022-12-07T11:51:33;99439.70;;;2.43;79.98
75852;BME280;64500;52.632;20.656;2022-12-07T11:54:10;99435.71;;;2.43;80.12
75852;BME280;64500;52.632;20.656;2022-12-07T11:56:39;99429.42;;;2.43;79.78
75852;BME280;64500;52.632;20.656;2022-12-07T11:59:31;99429.77;;;2.44;79.82
75852;BME280;64500;52.632;20.656;2022-12-07T12:02:15;99425.05;;;2.45;79.91
75852;BME280;64500;52.632;20.656;2022-12-07T12:05:12;99425.39;;;2.47;79.98
75852;BME280;64500;52.632;20.656;2022-12-07T12:07:41;99425.54;;;2.50;80.02
75852;BME280;64500;52.632;20.656;2022-12-07T12:10:22;99427.12;;;2.50;79.86
75852;BME280;64500;52.632;20.656;2022-12-07T12:13:14;99424.48;;;2.52;79.94
75852;BME280;64500;52.632;20.656;2022-12-07T12:16:13;99420.66;;;2.53;79.99
75852;BME280;64500;52.632;20.656;2022-12-07T12:21:41;99415.56;;;2.54;79.81
75852;BME280;64500;52.632;20.656;2022-12-07T12:24:20;99415.40;;;2.54;79.91
75852;BME280;64500;52.632;20.656;2022-12-07T12:26:58;99413.64;;;2.55;80.11
75852;BME280;64500;52.632;20.656;2022-12-07T12:29:36;99409.64;;;2.55;79.85
75852;BME280;64500;52.632;20.656;2022-12-07T12:34:40;99408.92;;;2.57;79.97
75852;BME280;64500;52.632;20.656;2022-12-07T12:42:52;99405.25;;;2.58;79.85
75852;BME280;64500;52.632;20.656;2022-12-07T12:45:29;99403.86;;;2.59;79.96
75852;BME280;64500;52.632;20.656;2022-12-07T12:47:58;99400.53;;;2.58;80.05
75852;BME280;64500;52.632;20.656;2022-12-07T12:50:27;99402.79;;;2.60;79.93
75852;BME280;64500;52.632;20.656;2022-12-07T12:53:01;99400.36;;;2.60;80.09
75852;BME280;64500;52.632;20.656;2022-12-07T12:56:11;99396.85;;;2.61;80.04
75852;BME280;64500;52.632;20.656;2022-12-07T12:58:41;99390.73;;;2.62;80.02
75852;BME280;64500;52.632;20.656;2022-12-07T13:03:59;99391.06;;;2.65;80.08
75852;BME280;64500;52.632;20.656;2022-12-07T13:08:56;99390.70;;;2.67;79.98
75852;BME280;64500;52.632;20.656;2022-12-07T13:11:34;99392.95;;;2.69;79.82
75852;BME280;64500;52.632;20.656;2022-12-07T13:17:12;99389.44;;;2.71;80.00
75852;BME280;64500;52.632;20.656;2022-12-07T13:19:56;99382.48;;;2.70;80.09
75852;BME280;64500;52.632;20.656;2022-12-07T13:27:50;99380.58;;;2.68;80.16
75852;BME280;64500;52.632;20.656;2022-12-07T13:30:20;99378.48;;;2.67;80.11
75852;BME280;64500;52.632;20.656;2022-12-07T13:32:52;99378.48;;;2.68;80.30
75852;BME280;64500;52.632;20.656;2022-12-07T13:35:34;99380.23;;;2.69;80.19
75852;BME280;64500;52.632;20.656;2022-12-07T13:38:13;99375.14;;;2.69;80.16
75852;BME280;64500;52.632;20.656;2022-12-07T13:40:42;99375.31;;;2.71;80.00
75852;BME280;64500;52.632;20.656;2022-12-07T13:43:14;99374.08;;;2.71;80.05
75852;BME280;64500;52.632;20.656;2022-12-07T13:45:42;99379.84;;;2.72;79.86
75852;BME280;64500;52.632;20.656;2022-12-07T13:48:36;99379.83;;;2.73;80.18
75852;BME280;64500;52.632;20.656;2022-12-07T13:51:23;99384.89;;;2.74;80.02
75852;BME280;64500;52.632;20.656;2022-12-07T13:53:59;99382.60;;;2.75;80.10
75852;BME280;64500;52.632;20.656;2022-12-07T13:56:36;99381.39;;;2.76;80.10
75852;BME280;64500;52.632;20.656;2022-12-07T13:59:05;99382.94;;;2.76;80.05
75852;BME280;64500;52.632;20.656;2022-12-07T14:01:37;99381.71;;;2.77;80.13
75852;BME280;64500;52.632;20.656;2022-12-07T14:04:31;99381.35;;;2.78;80.08
75852;BME280;64500;52.632;20.656;2022-12-07T14:07:00;99378.05;;;2.78;80.15
75852;BME280;64500;52.632;20.656;2022-12-07T14:09:29;99378.39;;;2.77;80.09
75852;BME280;64500;52.632;20.656;2022-12-07T14:11:57;99381.34;;;2.79;79.95
75852;BME280;64500;52.632;20.656;2022-12-07T14:14:27;99382.73;;;2.79;80.01
75852;BME280;64500;52.632;20.656;2022-12-07T14:17:16;99381.16;;;2.80;80.10
75852;BME280;64500;52.632;20.656;2022-12-07T14:19:56;99382.03;;;2.80;79.90
75852;BME280;64500;52.632;20.656;2022-12-07T14:22:28;99383.09;;;2.81;80.02
75852;BME280;64500;52.632;20.656;2022-12-07T14:25:01;99383.95;;;2.81;80.13
75852;BME280;64500;52.632;20.656;2022-12-07T14:27:33;99385.52;;;2.81;80.07
75852;BME280;64500;52.632;20.656;2022-12-07T14:30:02;99383.44;;;2.80;80.20
75852;BME280;64500;52.632;20.656;2022-12-07T14:32:30;99384.67;;;2.79;80.25
75852;BME280;64500;52.632;20.656;2022-12-07T14:35:09;99386.58;;;2.79;80.05
75852;BME280;64500;52.632;20.656;2022-12-07T14:37:41;99386.92;;;2.79;80.12
75852;BME280;64500;52.632;20.656;2022-12-07T14:40:21;99382.75;;;2.78;79.97
75852;BME280;64500;52.632;20.656;2022-12-07T14:43:02;99385.38;;;2.78;80.09
75852;BME280;64500;52.632;20.656;2022-12-07T14:45:29;99384.66;;;2.79;79.91
75852;BME280;64500;52.632;20.656;2022-12-07T14:47:57;99385.88;;;2.79;80.04
75852;BME280;64500;52.632;20.656;2022-12-07T14:50:24;99385.19;;;2.79;80.34
75852;BME280;64500;52.632;20.656;2022-12-07T14:52:55;99385.19;;;2.79;80.18
75852;BME280;64500;52.632;20.656;2022-12-07T14:55:27;99387.63;;;2.80;80.00
75852;BME280;64500;52.632;20.656;2022-12-07T14:57:55;99384.83;;;2.79;80.16
75852;BME280;64500;52.632;20.656;2022-12-07T15:00:24;99383.62;;;2.79;80.01
75852;BME280;64500;52.632;20.656;2022-12-07T15:02:53;99382.05;;;2.80;80.39
75852;BME280;64500;52.632;20.656;2022-12-07T15:05:21;99381.34;;;2.79;79.87
75852;BME280;64500;52.632;20.656;2022-12-07T15:07:49;99379.95;;;2.80;79.95
75852;BME280;64500;52.632;20.656;2022-12-07T15:10:25;99374.71;;;2.80;80.13
75852;BME280;64500;52.632;20.656;2022-12-07T15:12:57;99371.91;;;2.79;79.96
75852;BME280;64500;52.632;20.656;2022-12-07T15:15:49;99369.66;;;2.79;79.99
75852;BME280;64500;52.632;20.656;2022-12-07T15:18:16;99368.43;;;2.79;80.05